Time;durP1;ratioP1;P1;durP2;ratioP2;P2;SDS_P1;SDS_P2;PMS_P1;PMS_P2;Temp;Humidity;BMP_temperature;BMP_pressure;BME280_temperature;BME280_humidity;BME280_pressure;Samples;Min_cycle;Max_cycle;Signal;HPM_P1;HPM_P2
2022/02/20 00:01:54;;;;;;;;;;;25.10;99.90;;;;;;5092901;28;19919;-71
2022/02/20 00:04:21;;;;;;;;;;;25.00;99.90;;;;;;5092885;28;19908;-72
2022/02/20 00:06:47;;;;;;;;;;;25.10;99.90;;;;;;5092996;28;20366;-71
2022/02/20 00:09:14;;;;;;;;;;;25.20;99.90;;;;;;5092773;28;19915;-71
2022/02/20 00:11:41;;;;;;;;;;;25.30;99.90;;;;;;5092919;28;20266;-71
2022/02/20 00:14:07;;;;;;;;;;;25.40;99.90;;;;;;5092715;28;19908;-72
2022/02/20 00:16:35;;;;;;;;;;;25.50;99.90;;;;;;5092707;28;19909;-71
2022/02/20 00:19:02;;;;;;;;;;;25.40;99.90;;;;;;5092698;28;19916;-71
2022/02/20 00:21:28;;;;;;;;;;;25.30;99.90;;;;;;5092894;28;19908;-71
2022/02/20 00:23:55;;;;;;;;;;;25.30;99.90;;;;;;5092482;28;19912;-71
2022/02/20 00:26:22;;;;;;;;;;;25.40;99.90;;;;;;5092757;28;20343;-71
2022/02/20 00:28:48;;;;;;;;;;;25.50;99.90;;;;;;5092631;28;19915;-71
2022/02/20 00:31:15;;;;;;;;;;;25.50;99.90;;;;;;5092700;28;19908;-71
2022/02/20 00:33:42;;;;;;;;;;;25.50;99.90;;;;;;5092677;28;20010;-72
2022/02/20 00:36:08;;;;;;;;;;;25.80;99.90;;;;;;5092456;28;20422;-71
2022/02/20 00:38:35;;;;;;;;;;;25.90;99.90;;;;;;5092803;28;20321;-71
2022/02/20 00:41:02;;;;;;;;;;;25.90;99.90;;;;;;5092745;28;20404;-71
2022/02/20 00:43:28;;;;;;;;;;;26.00;99.90;;;;;;5092287;28;19932;-71
2022/02/20 00:45:55;;;;;;;;;;;25.90;99.90;;;;;;5092208;28;19909;-71
2022/02/20 00:48:21;;;;;;;;;;;26.00;99.90;;;;;;5092556;28;19908;-71
2022/02/20 00:50:48;;;;;;;;;;;26.10;99.90;;;;;;5092631;28;19909;-71
2022/02/20 00:53:15;;;;;;;;;;;26.10;99.90;;;;;;5092680;28;19908;-71
2022/02/20 00:55:42;;;;;;;;;;;25.90;99.90;;;;;;5092433;28;19908;-71
2022/02/20 00:58:08;;;;;;;;;;;26.00;99.90;;;;;;5092144;28;19916;-72
2022/02/20 01:00:36;;;;;;;;;;;26.20;99.90;;;;;;5093206;28;19920;-71
2022/02/20 01:03:03;;;;;;;;;;;26.20;99.90;;;;;;5096303;28;19908;-71
2022/02/20 01:05:30;;;;;;;;;;;26.30;99.90;;;;;;5096290;28;20000;-71
2022/02/20 01:07:56;;;;;;;;;;;26.20;99.90;;;;;;5096015;28;20011;-72
2022/02/20 01:10:23;;;;;;;;;;;26.60;99.90;;;;;;5096333;28;20007;-71
2022/02/20 01:12:50;;;;;;;;;;;27.10;99.90;;;;;;5096274;28;19908;-71
2022/02/20 01:15:18;;;;;;;;;;;27.30;99.90;;;;;;5096097;28;19998;-71
2022/02/20 01:17:45;;;;;;;;;;;27.10;99.90;;;;;;5096040;28;20244;-71
2022/02/20 01:20:11;;;;;;;;;;;26.90;99.90;;;;;;5096264;28;20396;-71
2022/02/20 01:22:38;;;;;;;;;;;26.70;99.90;;;;;;5096070;28;19954;-72
2022/02/20 01:25:05;;;;;;;;;;;26.60;99.90;;;;;;5096153;28;19931;-72
2022/02/20 01:27:32;;;;;;;;;;;26.40;99.90;;;;;;5096012;28;19961;-71
2022/02/20 01:29:58;;;;;;;;;;;26.30;99.90;;;;;;5094281;28;19989;-71
2022/02/20 01:32:25;;;;;;;;;;;26.00;99.90;;;;;;5095690;28;19934;-72
2022/02/20 01:34:52;;;;;;;;;;;26.00;99.90;;;;;;5095754;28;19953;-71
2022/02/20 01:37:18;;;;;;;;;;;26.40;99.90;;;;;;5095789;28;19916;-72
2022/02/20 01:39:45;;;;;;;;;;;26.80;99.90;;;;;;5095853;28;19908;-72
2022/02/20 01:42:12;;;;;;;;;;;27.30;99.90;;;;;;5095719;28;19908;-72
2022/02/20 01:44:38;;;;;;;;;;;27.40;99.90;;;;;;5095439;28;19908;-72
2022/02/20 01:47:06;;;;;;;;;;;27.30;99.90;;;;;;5095780;28;19912;-72
2022/02/20 01:49:33;;;;;;;;;;;27.20;99.90;;;;;;5095276;28;19908;-71
2022/02/20 01:52:00;;;;;;;;;;;27.60;99.90;;;;;;5095291;28;19908;-72
2022/02/20 01:54:27;;;;;;;;;;;27.90;99.90;;;;;;5095418;28;19912;-71
2022/02/20 01:56:54;;;;;;;;;;;27.80;99.90;;;;;;5095292;28;19998;-72
2022/02/20 01:59:22;;;;;;;;;;;27.70;99.90;;;;;;5095049;28;19912;-71
2022/02/20 02:01:48;;;;;;;;;;;27.50;99.90;;;;;;5095312;28;19966;-72
2022/02/20 02:04:15;;;;;;;;;;;27.20;99.90;;;;;;5095341;28;19916;-71
2022/02/20 02:06:42;;;;;;;;;;;27.00;99.90;;;;;;5094978;28;19947;-72
2022/02/20 02:09:08;;;;;;;;;;;27.00;99.90;;;;;;5094938;28;20359;-71
2022/02/20 02:11:35;;;;;;;;;;;26.90;99.90;;;;;;5094113;28;20336;-72
2022/02/20 02:14:02;;;;;;;;;;;27.00;99.90;;;;;;5094276;28;20278;-72
2022/02/20 02:16:30;;;;;;;;;;;26.90;99.90;;;;;;5095083;28;19963;-71
2022/02/20 02:18:57;;;;;;;;;;;27.00;99.90;;;;;;5094943;28;19927;-71
2022/02/20 02:21:23;;;;;;;;;;;27.00;99.90;;;;;;5094880;28;19916;-72
2022/02/20 02:23:50;;;;;;;;;;;26.90;99.90;;;;;;5094581;28;19962;-72
2022/02/20 02:26:18;;;;;;;;;;;26.90;99.90;;;;;;5094716;28;20013;-72
2022/02/20 02:28:45;;;;;;;;;;;27.10;99.90;;;;;;5094650;28;19915;-71
2022/02/20 02:31:12;;;;;;;;;;;27.10;99.90;;;;;;5094850;28;19974;-71
2022/02/20 02:33:39;;;;;;;;;;;27.00;99.90;;;;;;5094530;28;20255;-71
2022/02/20 02:36:07;;;;;;;;;;;26.80;99.90;;;;;;5094362;28;20331;-72
2022/02/20 02:38:34;;;;;;;;;;;26.70;99.90;;;;;;5094486;28;19920;-72
2022/02/20 02:41:04;;;;;;;;;;;26.70;99.90;;;;;;5094360;28;19908;-72
2022/02/20 02:43:31;;;;;;;;;;;26.50;99.90;;;;;;5093973;28;19908;-72
2022/02/20 02:45:58;;;;;;;;;;;26.50;99.90;;;;;;5094079;28;19930;-72
2022/02/20 02:48:24;;;;;;;;;;;26.60;99.90;;;;;;5093969;28;19955;-72
2022/02/20 02:50:51;;;;;;;;;;;26.70;99.90;;;;;;5094384;28;19923;-72
2022/02/20 02:53:18;;;;;;;;;;;26.70;99.90;;;;;;5094181;28;19950;-72
2022/02/20 02:55:45;;;;;;;;;;;26.80;99.90;;;;;;5094246;28;19908;-71
2022/02/20 02:58:16;;;;;;;;;;;26.80;99.90;;;;;;5094035;28;19969;-71
2022/02/20 03:00:43;;;;;;;;;;;26.70;99.90;;;;;;5093817;28;19920;-71
2022/02/20 03:03:09;;;;;;;;;;;26.50;99.90;;;;;;5093739;28;19908;-71
2022/02/20 03:05:36;;;;;;;;;;;26.60;99.90;;;;;;5094142;28;19961;-71
2022/02/20 03:08:03;;;;;;;;;;;26.80;99.90;;;;;;5092454;28;20421;-71
2022/02/20 03:10:29;;;;;;;;;;;26.70;99.90;;;;;;5093907;28;19908;-71
2022/02/20 03:12:58;;;;;;;;;;;26.80;99.90;;;;;;5093752;28;19919;-71
2022/02/20 03:15:24;;;;;;;;;;;26.90;99.90;;;;;;5093631;28;20283;-71
2022/02/20 03:17:51;;;;;;;;;;;26.90;99.90;;;;;;5093640;28;19940;-72
2022/02/20 03:20:18;;;;;;;;;;;26.80;99.90;;;;;;5093601;28;19908;-71
2022/02/20 03:22:44;;;;;;;;;;;26.90;99.90;;;;;;5093479;28;19914;-71
2022/02/20 03:25:11;;;;;;;;;;;26.90;99.90;;;;;;5093621;28;19912;-71
2022/02/20 03:27:37;;;;;;;;;;;26.80;99.90;;;;;;5093788;28;19915;-71
2022/02/20 03:30:05;;;;;;;;;;;26.80;99.90;;;;;;5093200;28;19908;-71
2022/02/20 03:32:31;;;;;;;;;;;26.80;99.90;;;;;;5093463;28;20365;-72
2022/02/20 03:35:00;;;;;;;;;;;26.70;99.90;;;;;;5094974;28;19999;-72
2022/02/20 03:37:26;;;;;;;;;;;26.80;99.90;;;;;;5094309;28;19916;-72
2022/02/20 03:39:53;;;;;;;;;;;26.80;99.90;;;;;;5093801;28;19991;-72
2022/02/20 03:42:19;;;;;;;;;;;26.80;99.90;;;;;;5093712;28;19948;-72
2022/02/20 03:44:46;;;;;;;;;;;26.70;99.90;;;;;;5093186;28;19908;-72
2022/02/20 03:47:13;;;;;;;;;;;26.80;99.90;;;;;;5093391;28;19908;-71
2022/02/20 03:49:39;;;;;;;;;;;26.90;99.90;;;;;;5093323;28;19916;-72
2022/02/20 03:52:07;;;;;;;;;;;27.00;99.90;;;;;;5092879;28;20223;-72
2022/02/20 03:54:34;;;;;;;;;;;26.80;99.90;;;;;;5093245;28;19916;-72
2022/02/20 03:57:01;;;;;;;;;;;26.80;99.90;;;;;;5092946;28;20331;-72
2022/02/20 03:59:27;;;;;;;;;;;26.90;99.90;;;;;;5092887;28;19924;-72
2022/02/20 04:01:54;;;;;;;;;;;27.00;99.90;;;;;;5092989;28;19908;-72
2022/02/20 04:04:21;;;;;;;;;;;27.00;99.90;;;;;;5125680;27;19908;-72
2022/02/20 04:06:48;;;;;;;;;;;27.00;99.90;;;;;;5092958;28;19908;-71
2022/02/20 04:09:15;;;;;;;;;;;27.00;99.90;;;;;;5082485;28;19909;-72
2022/02/20 04:11:41;;;;;;;;;;;26.90;99.90;;;;;;5072719;28;20343;-71
2022/02/20 04:14:08;;;;;;;;;;;27.00;99.90;;;;;;5072226;28;19923;-71
2022/02/20 04:16:35;;;;;;;;;;;27.00;99.90;;;;;;5072717;28;19908;-72
2022/02/20 04:19:01;;;;;;;;;;;27.00;99.90;;;;;;5072762;28;19969;-71
2022/02/20 04:21:28;;;;;;;;;;;27.00;99.90;;;;;;5072712;28;19908;-71
2022/02/20 04:23:55;;;;;;;;;;;27.10;99.90;;;;;;5071857;28;19956;-73
2022/02/20 04:26:21;;;;;;;;;;;27.10;99.90;;;;;;5072402;28;20420;-71
2022/02/20 04:28:48;;;;;;;;;;;27.00;99.90;;;;;;5072224;28;19975;-70
2022/02/20 04:31:17;;;;;;;;;;;27.00;99.90;;;;;;5072896;28;19984;-71
2022/02/20 04:33:45;;;;;;;;;;;27.00;99.90;;;;;;5072136;28;19909;-70
2022/02/20 04:36:12;;;;;;;;;;;27.00;99.90;;;;;;5071707;28;19959;-71
2022/02/20 04:38:39;;;;;;;;;;;26.90;99.90;;;;;;5071618;28;19923;-71
2022/02/20 04:41:05;;;;;;;;;;;26.90;99.90;;;;;;5072196;28;19908;-71
2022/02/20 04:43:32;;;;;;;;;;;27.10;99.90;;;;;;5072099;28;19916;-71
2022/02/20 04:45:59;;;;;;;;;;;27.00;99.90;;;;;;5104530;28;19912;-71
2022/02/20 04:48:25;;;;;;;;;;;26.80;99.90;;;;;;5072305;28;20003;-71
2022/02/20 04:50:52;;;;;;;;;;;26.80;99.90;;;;;;5072490;28;20002;-71
2022/02/20 04:53:19;;;;;;;;;;;26.80;99.90;;;;;;5072290;28;19947;-72
2022/02/20 04:55:45;;;;;;;;;;;26.90;99.90;;;;;;5071778;28;19932;-71
2022/02/20 04:58:12;;;;;;;;;;;27.10;99.90;;;;;;5071811;28;20266;-71
2022/02/20 05:00:38;;;;;;;;;;;27.10;99.90;;;;;;5072020;28;20367;-71
2022/02/20 05:03:05;;;;;;;;;;;27.00;99.90;;;;;;5072130;28;20279;-71
2022/02/20 05:05:32;;;;;;;;;;;26.80;99.90;;;;;;5072278;28;20339;-71
2022/02/20 05:07:58;;;;;;;;;;;26.60;99.90;;;;;;5071702;28;19909;-72
2022/02/20 05:10:25;;;;;;;;;;;26.50;99.90;;;;;;5071780;28;20283;-71
2022/02/20 05:12:52;;;;;;;;;;;26.50;99.90;;;;;;5072112;28;20316;-72
2022/02/20 05:15:18;;;;;;;;;;;26.50;99.90;;;;;;5072122;28;19909;-72
2022/02/20 05:17:45;;;;;;;;;;;26.40;99.90;;;;;;5071760;28;20472;-72
2022/02/20 05:20:13;;;;;;;;;;;26.30;99.90;;;;;;5072088;28;20325;-72
2022/02/20 05:22:39;;;;;;;;;;;26.30;99.90;;;;;;5071935;28;19916;-72
2022/02/20 05:25:06;;;;;;;;;;;26.20;99.90;;;;;;5070029;28;20379;-71
2022/02/20 05:27:33;;;;;;;;;;;26.10;99.90;;;;;;5071965;28;19946;-71
2022/02/20 05:30:00;;;;;;;;;;;26.00;99.90;;;;;;5071623;28;19909;-72
2022/02/20 05:32:26;;;;;;;;;;;26.10;99.90;;;;;;5071918;28;20355;-72
2022/02/20 05:34:53;;;;;;;;;;;26.10;99.90;;;;;;5071808;28;19979;-71
2022/02/20 05:37:20;;;;;;;;;;;26.20;99.90;;;;;;5071632;28;20294;-72
2022/02/20 05:39:47;;;;;;;;;;;26.20;99.90;;;;;;5070992;28;19912;-71
2022/02/20 05:42:13;;;;;;;;;;;26.10;99.90;;;;;;5071730;28;19916;-72
2022/02/20 05:44:40;;;;;;;;;;;26.10;99.90;;;;;;5071701;28;20378;-69
2022/02/20 05:47:07;;;;;;;;;;;26.20;99.90;;;;;;5073495;28;19912;-72
2022/02/20 05:49:33;;;;;;;;;;;26.20;99.90;;;;;;5075040;28;20385;-72
2022/02/20 05:52:00;;;;;;;;;;;26.40;99.90;;;;;;5074964;28;19954;-71
2022/02/20 05:54:27;;;;;;;;;;;26.30;99.90;;;;;;5074955;28;19913;-72
2022/02/20 05:56:54;;;;;;;;;;;26.30;99.90;;;;;;5074957;28;19916;-72
2022/02/20 05:59:20;;;;;;;;;;;26.20;99.90;;;;;;5107077;28;19991;-72
2022/02/20 06:01:47;;;;;;;;;;;26.30;99.90;;;;;;5074963;28;19974;-72
2022/02/20 06:04:14;;;;;;;;;;;26.30;99.90;;;;;;5074968;28;20045;-72
2022/02/20 06:06:40;;;;;;;;;;;26.20;99.90;;;;;;5074862;28;20438;-72
2022/02/20 06:09:07;;;;;;;;;;;26.20;99.90;;;;;;5074384;28;19916;-72
2022/02/20 06:11:35;;;;;;;;;;;26.00;99.90;;;;;;5074819;28;19987;-72
2022/02/20 06:14:01;;;;;;;;;;;26.10;99.90;;;;;;5074460;28;20355;-73
2022/02/20 06:16:28;;;;;;;;;;;26.20;99.90;;;;;;5074778;28;19920;-72
2022/02/20 06:18:55;;;;;;;;;;;26.20;99.90;;;;;;5074715;28;19916;-72
2022/02/20 06:21:21;;;;;;;;;;;26.00;99.90;;;;;;5074628;28;19909;-72
2022/02/20 06:23:48;;;;;;;;;;;25.90;99.90;;;;;;5073938;28;19908;-72
2022/02/20 06:26:15;;;;;;;;;;;26.00;99.90;;;;;;5074541;28;20321;-71
2022/02/20 06:28:41;;;;;;;;;;;25.80;99.90;;;;;;5074496;28;20366;-72
2022/02/20 06:31:08;;;;;;;;;;;25.80;99.90;;;;;;5074846;28;19908;-71
2022/02/20 06:33:34;;;;;;;;;;;25.80;99.90;;;;;;5074475;28;19909;-73
2022/02/20 06:36:01;;;;;;;;;;;25.70;99.90;;;;;;5074494;28;20355;-72
2022/02/20 06:38:28;;;;;;;;;;;25.70;99.90;;;;;;5074100;28;20351;-72
2022/02/20 06:40:54;;;;;;;;;;;25.70;99.90;;;;;;5074375;28;20045;-73
2022/02/20 06:43:21;;;;;;;;;;;25.70;99.90;;;;;;5073066;28;19908;-73
2022/02/20 06:45:48;;;;;;;;;;;25.80;99.90;;;;;;5073948;28;19916;-74
2022/02/20 06:48:14;;;;;;;;;;;25.70;99.90;;;;;;5074305;28;19909;-73
2022/02/20 06:50:41;;;;;;;;;;;25.80;99.90;;;;;;5074275;28;20298;-73
2022/02/20 06:53:08;;;;;;;;;;;25.80;99.90;;;;;;5074088;28;19916;-73
2022/02/20 06:55:34;;;;;;;;;;;25.80;99.90;;;;;;5074635;28;19970;-73
2022/02/20 06:58:01;;;;;;;;;;;25.70;99.90;;;;;;5074542;28;19939;-73
2022/02/20 07:00:32;;;;;;;;;;;25.70;99.90;;;;;;5075364;28;20371;-72
2022/02/20 07:02:59;;;;;;;;;;;25.60;99.90;;;;;;5074073;28;19908;-73
2022/02/20 07:05:25;;;;;;;;;;;25.50;99.90;;;;;;5073868;28;20367;-73
2022/02/20 07:07:52;;;;;;;;;;;25.30;99.90;;;;;;5073820;28;19962;-74
2022/02/20 07:10:19;;;;;;;;;;;25.30;99.90;;;;;;5074032;28;20367;-74
2022/02/20 07:12:45;;;;;;;;;;;25.20;99.90;;;;;;5073936;28;20359;-75
2022/02/20 07:15:12;;;;;;;;;;;25.20;99.90;;;;;;5075284;28;19947;-71
2022/02/20 07:17:39;;;;;;;;;;;25.20;99.90;;;;;;5073911;28;19927;-72
2022/02/20 07:20:06;;;;;;;;;;;25.20;99.90;;;;;;5073514;28;20022;-73
2022/02/20 07:22:34;;;;;;;;;;;25.20;99.90;;;;;;5073840;28;19908;-72
2022/02/20 07:25:01;;;;;;;;;;;25.20;99.90;;;;;;5073826;28;20367;-72
2022/02/20 07:27:35;;;;;;;;;;;25.10;99.90;;;;;;5073708;28;19991;-72
2022/02/20 07:30:02;;;;;;;;;;;25.10;99.90;;;;;;5073863;28;19961;-71
2022/02/20 07:32:28;;;;;;;;;;;25.10;99.90;;;;;;5073613;28;20274;-72
2022/02/20 07:34:55;;;;;;;;;;;25.00;99.90;;;;;;5074241;28;20326;-72
2022/02/20 07:37:22;;;;;;;;;;;25.00;99.90;;;;;;5075515;28;20018;-72
2022/02/20 07:39:48;;;;;;;;;;;25.00;99.90;;;;;;5074974;28;19961;-72
2022/02/20 07:42:15;;;;;;;;;;;24.90;99.90;;;;;;5073250;28;19932;-73
2022/02/20 07:44:42;;;;;;;;;;;24.90;99.90;;;;;;5073253;28;20409;-73
2022/02/20 07:47:10;;;;;;;;;;;24.90;99.90;;;;;;5073220;28;19912;-73
2022/02/20 07:49:37;;;;;;;;;;;24.80;99.90;;;;;;5073057;28;19963;-72
2022/02/20 07:52:03;;;;;;;;;;;24.80;99.90;;;;;;5072755;28;19908;-72
2022/02/20 07:54:30;;;;;;;;;;;24.80;99.90;;;;;;5072870;28;19908;-72
2022/02/20 07:56:57;;;;;;;;;;;24.80;99.90;;;;;;5072627;28;19912;-72
2022/02/20 07:59:25;;;;;;;;;;;24.80;99.90;;;;;;5072919;28;19912;-73
2022/02/20 08:01:52;;;;;;;;;;;24.70;99.90;;;;;;5072608;28;19943;-72
2022/02/20 08:04:19;;;;;;;;;;;24.60;99.90;;;;;;5072791;28;19927;-72
2022/02/20 08:06:46;;;;;;;;;;;24.60;99.90;;;;;;5105248;28;19908;-73
2022/02/20 08:09:12;;;;;;;;;;;24.60;99.90;;;;;;5070915;28;20290;-73
2022/02/20 08:11:39;;;;;;;;;;;24.60;99.90;;;;;;5072126;28;19909;-73
2022/02/20 08:14:06;;;;;;;;;;;24.50;99.90;;;;;;5072480;28;19913;-73
2022/02/20 08:16:33;;;;;;;;;;;24.40;99.90;;;;;;5072541;28;19912;-73
2022/02/20 08:18:59;;;;;;;;;;;24.40;99.90;;;;;;5072599;28;19962;-73
2022/02/20 08:21:26;;;;;;;;;;;24.50;99.90;;;;;;5072747;28;20343;-73
2022/02/20 08:23:52;;;;;;;;;;;24.40;99.90;;;;;;5072406;28;20335;-73
2022/02/20 08:26:19;;;;;;;;;;;24.40;99.90;;;;;;5071337;28;20321;-74
2022/02/20 08:28:46;;;;;;;;;;;24.30;99.90;;;;;;5072476;28;19908;-73
2022/02/20 08:31:12;;;;;;;;;;;24.20;99.90;;;;;;5072394;28;19908;-73
2022/02/20 08:33:39;;;;;;;;;;;24.20;99.90;;;;;;5071886;28;19908;-73
2022/02/20 08:36:06;;;;;;;;;;;24.20;99.90;;;;;;5104861;28;20423;-72
2022/02/20 08:38:33;;;;;;;;;;;24.20;99.90;;;;;;5072205;28;19923;-72
2022/02/20 08:40:59;;;;;;;;;;;24.20;99.90;;;;;;5072583;28;19909;-71
2022/02/20 08:43:26;;;;;;;;;;;24.20;99.90;;;;;;5072189;28;19909;-71
2022/02/20 08:45:53;;;;;;;;;;;24.20;99.90;;;;;;5071866;28;20016;-72
2022/02/20 08:48:19;;;;;;;;;;;24.10;99.90;;;;;;5071772;28;19940;-71
2022/02/20 08:50:46;;;;;;;;;;;24.10;99.90;;;;;;5072013;28;20394;-71
2022/02/20 08:53:13;;;;;;;;;;;24.00;99.90;;;;;;5072301;28;20340;-71
2022/02/20 08:55:39;;;;;;;;;;;24.00;99.90;;;;;;5072111;28;19926;-71
2022/02/20 08:58:08;;;;;;;;;;;24.00;99.90;;;;;;5071768;28;20469;-71
2022/02/20 09:00:34;;;;;;;;;;;24.00;99.90;;;;;;5072151;28;19921;-71
2022/02/20 09:03:01;;;;;;;;;;;24.00;99.90;;;;;;5071568;28;20018;-72
2022/02/20 09:05:28;;;;;;;;;;;23.90;99.90;;;;;;5072090;28;19912;-72
2022/02/20 09:07:54;;;;;;;;;;;23.90;99.90;;;;;;5071908;28;19908;-72
2022/02/20 09:10:21;;;;;;;;;;;23.90;99.90;;;;;;5072042;28;19919;-72
2022/02/20 09:12:47;;;;;;;;;;;23.90;99.90;;;;;;5072092;28;19987;-72
2022/02/20 09:15:14;;;;;;;;;;;23.90;99.90;;;;;;5072037;28;19958;-72
2022/02/20 09:17:41;;;;;;;;;;;23.90;99.90;;;;;;5071312;28;19970;-72
2022/02/20 09:20:08;;;;;;;;;;;23.90;99.90;;;;;;5071832;28;19908;-72
2022/02/20 09:22:35;;;;;;;;;;;23.90;99.90;;;;;;5074617;28;20318;-71
2022/02/20 09:25:01;;;;;;;;;;;23.90;99.90;;;;;;5075760;28;19913;-72
2022/02/20 09:27:28;;;;;;;;;;;23.90;99.90;;;;;;5075339;28;19938;-72
2022/02/20 09:29:55;;;;;;;;;;;23.90;99.90;;;;;;5075508;28;19909;-71
2022/02/20 09:32:26;;;;;;;;;;;23.90;99.90;;;;;;5106488;28;19966;-72
2022/02/20 09:34:53;;;;;;;;;;;23.80;99.90;;;;;;5075499;28;19917;-71
2022/02/20 09:37:20;;;;;;;;;;;23.80;99.90;;;;;;5075588;28;19920;-71
2022/02/20 09:39:49;;;;;;;;;;;23.80;99.90;;;;;;5075534;28;20374;-72
2022/02/20 09:42:15;;;;;;;;;;;23.80;99.90;;;;;;5107603;28;19917;-72
2022/02/20 09:44:44;;;;;;;;;;;23.80;99.90;;;;;;5075647;28;19908;-71
2022/02/20 09:47:13;;;;;;;;;;;23.80;99.90;;;;;;5074873;28;20274;-72
2022/02/20 09:49:40;;;;;;;;;;;23.80;99.90;;;;;;5075487;28;19923;-72
2022/02/20 09:52:07;;;;;;;;;;;23.80;99.90;;;;;;5073680;28;19913;-72
2022/02/20 09:54:34;;;;;;;;;;;23.80;99.90;;;;;;5075279;28;19909;-72
2022/02/20 09:57:01;;;;;;;;;;;23.80;99.90;;;;;;5075077;28;20351;-72
2022/02/20 09:59:29;;;;;;;;;;;23.80;99.90;;;;;;5074976;28;19920;-72
2022/02/20 10:02:09;;;;;;;;;;;23.80;99.90;;;;;;5074791;28;19912;-73
2022/02/20 10:04:46;;;;;;;;;;;23.80;99.90;;;;;;5074995;28;20027;-71
2022/02/20 10:07:29;;;;;;;;;;;23.80;99.90;;;;;;5107667;28;19999;-71
2022/02/20 10:09:57;;;;;;;;;;;23.80;99.90;;;;;;5074736;28;19956;-71
2022/02/20 10:12:25;;;;;;;;;;;23.80;99.90;;;;;;5074948;28;20337;-72
2022/02/20 10:14:52;;;;;;;;;;;23.80;99.90;;;;;;5074942;28;20021;-71
2022/02/20 10:17:21;;;;;;;;;;;23.80;99.90;;;;;;5074956;28;19931;-71
2022/02/20 10:20:06;;;;;;;;;;;23.80;99.90;;;;;;5074816;28;20386;-71
2022/02/20 10:22:33;;;;;;;;;;;23.80;99.90;;;;;;5074916;28;19916;-71
2022/02/20 10:25:02;;;;;;;;;;;23.80;99.90;;;;;;5074775;28;19908;-72
2022/02/20 10:27:30;;;;;;;;;;;23.80;99.90;;;;;;5074584;28;19909;-72
2022/02/20 10:30:14;;;;;;;;;;;23.80;99.90;;;;;;5074311;28;19998;-72
2022/02/20 10:32:44;;;;;;;;;;;23.80;99.90;;;;;;5073712;28;19923;-72
2022/02/20 10:35:15;;;;;;;;;;;23.80;99.90;;;;;;5074399;28;19913;-72
2022/02/20 10:37:42;;;;;;;;;;;23.80;99.90;;;;;;5074393;28;19917;-71
2022/02/20 10:40:28;;;;;;;;;;;23.80;99.90;;;;;;5074503;28;19923;-73
2022/02/20 10:42:57;;;;;;;;;;;23.80;99.90;;;;;;5074032;28;20371;-73
2022/02/20 10:45:40;;;;;;;;;;;23.80;99.90;;;;;;5074198;28;19994;-71
2022/02/20 10:48:15;;;;;;;;;;;23.80;99.90;;;;;;5073983;28;20366;-71
2022/02/20 10:50:42;;;;;;;;;;;23.80;99.90;;;;;;5074104;28;19908;-71
2022/02/20 10:53:19;;;;;;;;;;;23.80;99.90;;;;;;5074182;28;19989;-71
2022/02/20 10:55:47;;;;;;;;;;;23.80;99.90;;;;;;5073840;28;19916;-72
2022/02/20 10:58:16;;;;;;;;;;;23.80;99.90;;;;;;5073871;28;20011;-73
2022/02/20 11:00:47;;;;;;;;;;;23.80;99.90;;;;;;5073721;28;20306;-72
2022/02/20 11:03:14;;;;;;;;;;;23.80;99.90;;;;;;5074009;28;19999;-72
2022/02/20 11:05:40;;;;;;;;;;;23.80;99.90;;;;;;5073914;28;19999;-71
2022/02/20 11:08:08;;;;;;;;;;;23.70;99.90;;;;;;5073661;28;20478;-71
2022/02/20 11:10:37;;;;;;;;;;;23.70;99.90;;;;;;5073996;28;19951;-72
2022/02/20 11:13:04;;;;;;;;;;;23.70;99.90;;;;;;5073787;28;19993;-72
2022/02/20 11:15:33;;;;;;;;;;;23.70;99.90;;;;;;5073555;28;19908;-72
2022/02/20 11:18:01;;;;;;;;;;;23.70;99.90;;;;;;5073419;28;19923;-71
2022/02/20 11:20:32;;;;;;;;;;;23.70;99.90;;;;;;5073822;28;19927;-71
2022/02/20 11:23:05;;;;;;;;;;;23.70;99.90;;;;;;5073609;28;19952;-71
2022/02/20 11:25:34;;;;;;;;;;;23.70;99.90;;;;;;5073789;28;19915;-71
2022/02/20 11:28:03;;;;;;;;;;;23.70;99.90;;;;;;5075719;28;19979;-71
2022/02/20 11:30:30;;;;;;;;;;;23.70;99.90;;;;;;5073801;28;19978;-71
2022/02/20 11:32:58;;;;;;;;;;;23.70;99.90;;;;;;5073540;28;19908;-71
2022/02/20 11:35:25;;;;;;;;;;;23.70;99.90;;;;;;5075236;28;19947;-71
2022/02/20 11:37:54;;;;;;;;;;;23.70;99.90;;;;;;5075121;28;19916;-71
2022/02/20 11:40:21;;;;;;;;;;;23.70;99.90;;;;;;5074185;28;19916;-71
2022/02/20 11:43:00;;;;;;;;;;;23.70;99.90;;;;;;5073081;28;19909;-71
2022/02/20 11:45:27;;;;;;;;;;;23.70;99.90;;;;;;5072773;28;19923;-72
2022/02/20 11:48:04;;;;;;;;;;;23.60;99.90;;;;;;5072836;28;19912;-71
2022/02/20 11:50:38;;;;;;;;;;;23.60;99.90;;;;;;5073243;28;19908;-72
2022/02/20 11:53:06;;;;;;;;;;;23.60;99.90;;;;;;5073100;28;19908;-72
2022/02/20 11:55:34;;;;;;;;;;;23.60;99.90;;;;;;5072960;28;19912;-72
2022/02/20 11:58:13;;;;;;;;;;;23.50;99.90;;;;;;5072579;28;20359;-72
2022/02/20 12:01:03;;;;;;;;;;;23.50;99.90;;;;;;5072638;28;19950;-72
2022/02/20 12:03:31;;;;;;;;;;;23.50;99.90;;;;;;5069978;28;19908;-72
2022/02/20 12:06:10;;;;;;;;;;;23.50;99.90;;;;;;5072677;28;20343;-72
2022/02/20 12:08:46;;;;;;;;;;;23.50;99.90;;;;;;5072897;28;19934;-72
2022/02/20 12:11:34;;;;;;;;;;;23.50;99.90;;;;;;5072794;28;19970;-72
2022/02/20 12:14:22;;;;;;;;;;;23.50;99.90;;;;;;5072468;28;19913;-71
2022/02/20 12:16:50;;;;;;;;;;;23.50;99.90;;;;;;5072469;28;20256;-72
2022/02/20 12:19:20;;;;;;;;;;;23.50;99.90;;;;;;5072536;28;19928;-72
2022/02/20 12:21:52;;;;;;;;;;;23.50;99.90;;;;;;5072369;28;19915;-72
2022/02/20 12:24:20;;;;;;;;;;;23.50;99.90;;;;;;5072633;28;19969;-72
2022/02/20 12:27:00;;;;;;;;;;;23.50;99.90;;;;;;5072561;28;19957;-72
2022/02/20 12:29:35;;;;;;;;;;;23.50;99.90;;;;;;5072434;28;19912;-72
2022/02/20 12:32:12;;;;;;;;;;;23.50;99.90;;;;;;5072260;28;20007;-72
2022/02/20 12:34:51;;;;;;;;;;;23.50;99.90;;;;;;5072458;28;19909;-72
2022/02/20 12:37:19;;;;;;;;;;;23.50;99.90;;;;;;5072552;28;19908;-72
2022/02/20 12:39:46;;;;;;;;;;;23.50;99.90;;;;;;5072458;28;19912;-72
2022/02/20 12:42:13;;;;;;;;;;;23.50;99.90;;;;;;5072439;28;20267;-72
2022/02/20 12:44:41;;;;;;;;;;;23.50;99.90;;;;;;5072524;28;19931;-73
2022/02/20 12:47:07;;;;;;;;;;;23.50;99.90;;;;;;5072406;28;19917;-72
2022/02/20 12:49:38;;;;;;;;;;;23.60;99.90;;;;;;5072365;28;19908;-72
2022/02/20 12:52:05;;;;;;;;;;;23.60;99.90;;;;;;5072150;28;19999;-72
2022/02/20 12:54:32;;;;;;;;;;;23.60;99.90;;;;;;5072758;28;19909;-73
2022/02/20 12:57:18;;;;;;;;;;;23.60;99.90;;;;;;5075880;28;19915;-72
2022/02/20 12:59:54;;;;;;;;;;;23.60;99.90;;;;;;5077184;28;19924;-72
2022/02/20 13:02:31;;;;;;;;;;;23.50;99.90;;;;;;5076841;28;20359;-72
2022/02/20 13:05:13;;;;;;;;;;;23.60;99.90;;;;;;5076906;28;19908;-72
2022/02/20 13:07:40;;;;;;;;;;;23.60;99.90;;;;;;5076510;28;19915;-72
2022/02/20 13:10:08;;;;;;;;;;;23.60;99.90;;;;;;5075915;28;20378;-72
2022/02/20 13:12:34;;;;;;;;;;;23.60;99.90;;;;;;5076269;28;20271;-72
2022/02/20 13:15:10;;;;;;;;;;;23.60;99.90;;;;;;5076122;28;20303;-72
2022/02/20 13:17:47;;;;;;;;;;;23.60;99.90;;;;;;5076025;28;19970;-72
2022/02/20 13:20:30;;;;;;;;;;;23.60;99.90;;;;;;5076103;28;19915;-72
2022/02/20 13:22:58;;;;;;;;;;;23.60;99.90;;;;;;5075938;28;20104;-73
2022/02/20 13:25:24;;;;;;;;;;;23.60;99.90;;;;;;5076101;28;19954;-70
2022/02/20 13:27:52;;;;;;;;;;;23.50;99.90;;;;;;5075894;28;19947;-71
2022/02/20 13:30:29;;;;;;;;;;;23.50;99.90;;;;;;5076325;28;20001;-70
2022/02/20 13:33:05;;;;;;;;;;;23.50;99.90;;;;;;5080615;28;19908;-72
2022/02/20 13:35:33;;;;;;;;;;;23.50;99.90;;;;;;5075853;28;19967;-72
2022/02/20 13:38:01;;;;;;;;;;;23.50;99.90;;;;;;5075504;28;19917;-72
2022/02/20 13:40:27;;;;;;;;;;;23.50;99.90;;;;;;5075587;28;19954;-72
2022/02/20 13:43:05;;;;;;;;;;;23.50;99.90;;;;;;5075642;28;19943;-72
2022/02/20 13:45:32;;;;;;;;;;;23.40;99.90;;;;;;5075433;28;19908;-72
2022/02/20 13:47:58;;;;;;;;;;;23.40;99.90;;;;;;5075212;28;19908;-70
2022/02/20 13:50:25;;;;;;;;;;;23.30;99.90;;;;;;5075439;28;19912;-70
2022/02/20 13:52:52;;;;;;;;;;;23.30;99.90;;;;;;5075184;28;20283;-70
2022/02/20 13:55:19;;;;;;;;;;;23.30;99.90;;;;;;5075254;28;20321;-70
2022/02/20 13:57:46;;;;;;;;;;;23.30;99.90;;;;;;5075073;28;19916;-71
2022/02/20 14:00:13;;;;;;;;;;;23.30;99.90;;;;;;5075064;28;20363;-71
2022/02/20 14:02:42;;;;;;;;;;;23.20;99.90;;;;;;5075185;28;19908;-71
2022/02/20 14:05:17;;;;;;;;;;;23.20;99.90;;;;;;5075001;28;20015;-71
2022/02/20 14:07:44;;;;;;;;;;;23.20;99.90;;;;;;5075277;28;19913;-71
2022/02/20 14:10:12;;;;;;;;;;;23.30;99.90;;;;;;5075180;28;19999;-70
2022/02/20 14:12:40;;;;;;;;;;;23.30;99.90;;;;;;5075279;28;19963;-71
2022/02/20 14:15:07;;;;;;;;;;;23.30;99.90;;;;;;5074895;28;19909;-71
2022/02/20 14:17:52;;;;;;;;;;;23.30;99.90;;;;;;5074885;28;19917;-71
2022/02/20 14:20:27;;;;;;;;;;;23.30;99.90;;;;;;5074810;28;19915;-71
2022/02/20 14:22:54;;;;;;;;;;;23.30;99.90;;;;;;5074830;28;19948;-71